createdAt,value
2022-11-28T00:01:44.702Z,100494.88
2022-11-28T00:04:12.150Z,100491.41
2022-11-28T00:06:45.579Z,100491.69
2022-11-28T00:09:14.322Z,100498.50
2022-11-28T00:11:42.907Z,100501.72
2022-11-28T00:14:10.259Z,100495.63
2022-11-28T00:16:37.607Z,100499.78
2022-11-28T00:19:05.538Z,100482.28
2022-11-28T00:21:32.527Z,100496.09
2022-11-28T00:23:59.760Z,100493.47
2022-11-28T00:26:28.613Z,100489.81
2022-11-28T00:28:56.708Z,100483.22
2022-11-28T00:31:26.546Z,100471.75
2022-11-28T00:33:53.587Z,100480.72
2022-11-28T00:36:20.666Z,100485.47
2022-11-28T00:38:48.016Z,100482.31
2022-11-28T00:41:20.400Z,100489.31
2022-11-28T00:43:48.671Z,100482.53
2022-11-28T00:46:16.380Z,100473.63
2022-11-28T00:48:43.631Z,100467.16
2022-11-28T00:51:12.019Z,100474.34
2022-11-28T00:53:40.614Z,100476.88
2022-11-28T00:56:08.503Z,100473.47
2022-11-28T00:58:36.009Z,100479.84
2022-11-28T01:01:21.121Z,100468.25
2022-11-28T01:03:50.097Z,100462.38
2022-11-28T01:06:31.990Z,100474.63
2022-11-28T01:09:00.898Z,100477.41
2022-11-28T01:11:29.055Z,100470.84
2022-11-28T01:13:58.153Z,100450.78
2022-11-28T01:16:24.943Z,100469.13
2022-11-28T01:18:51.690Z,100464.75
2022-11-28T01:21:19.458Z,100467.41
2022-11-28T01:23:46.606Z,100467.41
2022-11-28T01:26:19.738Z,100462.88
2022-11-28T01:28:47.196Z,100469.66
2022-11-28T01:31:17.029Z,100464.84
2022-11-28T01:33:44.402Z,100452.63
2022-11-28T01:36:12.613Z,100455.38
2022-11-28T01:38:39.783Z,100456.69
2022-11-28T01:41:07.493Z,100451.41
2022-11-28T01:43:35.144Z,100430.72
2022-11-28T01:46:02.311Z,100425.44
2022-11-28T01:48:48.664Z,100416.91
2022-11-28T01:51:15.850Z,100427.47
2022-11-28T01:53:45.791Z,100426.81
2022-11-28T01:56:20.962Z,100433.91
2022-11-28T01:58:53.756Z,100434.88
2022-11-28T02:01:21.440Z,100431.63
2022-11-28T02:03:49.956Z,100422.06
2022-11-28T02:06:20.687Z,100412.75
2022-11-28T02:08:54.359Z,100400.84
2022-11-28T02:12:02.258Z,100421.84
2022-11-28T02:14:52.469Z,100414.25
2022-11-28T02:18:03.557Z,100417.03
2022-11-28T02:21:04.774Z,100401.50
2022-11-28T02:23:56.154Z,100415.53
2022-11-28T02:26:31.615Z,100417.19
2022-11-28T02:29:23.838Z,100398.97
2022-11-28T02:32:19.588Z,100406.13
2022-11-28T02:34:57.049Z,100411.47
2022-11-28T02:37:36.470Z,100411.97
2022-11-28T02:40:18.198Z,100400.22
2022-11-28T02:43:21.683Z,100322.81
2022-11-28T02:45:58.116Z,100410.53
2022-11-28T02:48:34.531Z,100411.66
2022-11-28T02:51:14.847Z,100404.84
2022-11-28T02:53:45.954Z,100394.38
2022-11-28T02:56:13.835Z,100394.47
2022-11-28T02:58:40.663Z,100415.03
2022-11-28T03:01:17.029Z,100413.41
2022-11-28T03:03:57.643Z,100409.28
2022-11-28T03:06:42.809Z,100423.50
2022-11-28T03:09:30.965Z,100415.53
2022-11-28T03:12:09.808Z,100425.84
2022-11-28T03:14:39.362Z,100420.84
2022-11-28T03:17:33.513Z,100416.81
2022-11-28T03:20:15.034Z,100426.59
2022-11-28T03:23:20.098Z,100415.22
2022-11-28T03:26:10.142Z,100410.03
2022-11-28T03:28:53.141Z,100401.16
2022-11-28T03:31:31.736Z,100407.78
2022-11-28T03:34:00.997Z,100405.00
2022-11-28T03:37:03.401Z,100392.53
2022-11-28T03:39:35.406Z,100407.56
2022-11-28T03:42:16.094Z,100401.31
2022-11-28T03:44:53.260Z,100401.16
2022-11-28T03:47:20.743Z,100405.91
2022-11-28T03:49:56.449Z,100404.09
2022-11-28T03:52:32.825Z,100407.63
2022-11-28T03:55:04.388Z,100380.78
2022-11-28T03:57:47.603Z,100407.56
2022-11-28T04:00:15.188Z,100411.88
2022-11-28T04:03:23.249Z,100417.66
2022-11-28T04:05:57.407Z,100424.03
2022-11-28T04:08:41.136Z,100416.13
2022-11-28T04:11:19.152Z,100416.06
2022-11-28T04:13:58.164Z,100424.94
2022-11-28T04:16:52.160Z,100424.31
2022-11-28T04:19:41.941Z,100433.69
2022-11-28T04:22:13.159Z,100425.59
2022-11-28T04:24:46.127Z,100427.56
2022-11-28T04:27:18.283Z,100436.16
2022-11-28T04:29:51.490Z,100424.94
2022-11-28T04:32:19.846Z,100435.19
2022-11-28T04:34:52.823Z,100424.50
2022-11-28T04:37:20.579Z,100431.56
2022-11-28T04:39:50.060Z,100439.63
2022-11-28T04:42:30.654Z,100447.38
2022-11-28T04:45:15.594Z,100418.56
2022-11-28T04:47:44.544Z,100423.22
2022-11-28T04:50:13.490Z,100433.63
2022-11-28T04:52:58.648Z,100444.06
2022-11-28T04:55:37.311Z,100445.22
2022-11-28T04:58:15.388Z,100444.69
2022-11-28T05:00:43.871Z,100444.75
2022-11-28T05:03:11.039Z,100443.53
2022-11-28T05:05:46.982Z,100457.25
2022-11-28T05:08:13.842Z,100461.31
2022-11-28T05:10:41.196Z,100455.09
2022-11-28T05:13:08.003Z,100378.94
2022-11-28T05:15:34.884Z,100463.44
2022-11-28T05:18:01.797Z,100428.13
2022-11-28T05:20:29.167Z,100450.88
2022-11-28T05:22:55.867Z,100444.25
2022-11-28T05:25:22.542Z,100439.28
2022-11-28T05:27:49.314Z,100438.38
2022-11-28T05:30:16.115Z,100433.41
2022-11-28T05:32:42.808Z,100443.69
2022-11-28T05:35:09.655Z,100448.97
2022-11-28T05:37:36.758Z,100439.28
2022-11-28T05:40:04.123Z,100441.13
2022-11-28T05:42:35.861Z,100439.88
2022-11-28T05:45:03.278Z,100438.53
2022-11-28T05:47:32.100Z,100432.56
2022-11-28T05:49:58.854Z,100438.31
2022-11-28T05:52:25.589Z,100340.44
2022-11-28T05:54:52.339Z,100415.34
2022-11-28T05:57:19.057Z,100431.75
2022-11-28T05:59:45.966Z,100432.34
2022-11-28T06:02:12.705Z,100417.44
2022-11-28T06:04:41.925Z,100431.63
2022-11-28T06:07:08.904Z,100400.06
2022-11-28T06:09:35.563Z,100409.00
2022-11-28T06:12:02.626Z,100419.41
2022-11-28T06:14:29.353Z,100409.31
2022-11-28T06:16:56.139Z,100401.84
2022-11-28T06:19:22.939Z,100415.16
2022-11-28T06:21:50.968Z,100412.16
2022-11-28T06:24:17.925Z,100420.53
2022-11-28T06:26:44.663Z,100396.59
2022-11-28T06:29:11.443Z,100400.50
2022-11-28T06:31:38.135Z,100404.94
2022-11-28T06:34:04.961Z,100407.66
2022-11-28T06:36:31.651Z,100400.34
2022-11-28T06:38:58.575Z,100402.16
2022-11-28T06:41:25.318Z,100418.72
2022-11-28T06:43:52.077Z,100417.41
2022-11-28T06:46:20.502Z,100405.38
2022-11-28T06:48:48.555Z,100406.22
2022-11-28T06:51:16.252Z,100414.25
2022-11-28T06:53:43.325Z,100396.81
2022-11-28T06:56:14.201Z,100413.34
2022-11-28T06:58:41.842Z,100412.22
2022-11-28T07:01:20.270Z,100413.75
2022-11-28T07:03:47.720Z,100413.09
2022-11-28T07:06:16.197Z,100425.09
2022-11-28T07:08:43.666Z,100429.25
2022-11-28T07:11:14.832Z,100425.84
2022-11-28T07:13:42.325Z,100405.94
2022-11-28T07:16:15.734Z,100418.50
2022-11-28T07:18:43.029Z,100430.31
2022-11-28T07:21:10.436Z,100437.28
2022-11-28T07:23:37.339Z,100435.81
2022-11-28T07:26:04.994Z,100436.44
2022-11-28T07:28:32.627Z,100435.50
2022-11-28T07:31:06.706Z,100449.47
2022-11-28T07:33:35.056Z,100442.06
2022-11-28T07:36:04.576Z,100438.63
2022-11-28T07:38:32.322Z,100439.66
2022-11-28T07:41:06.972Z,100437.41
2022-11-28T07:43:33.973Z,100428.94
2022-11-28T07:46:04.118Z,100422.22
2022-11-28T07:48:30.768Z,100429.63
2022-11-28T07:50:57.475Z,100431.09
2022-11-28T07:53:24.195Z,100406.06
2022-11-28T07:55:51.329Z,100404.69
2022-11-28T07:58:19.466Z,100414.66
2022-11-28T08:00:46.114Z,100415.84
2022-11-28T08:03:12.728Z,100415.47
2022-11-28T08:05:39.424Z,100412.50
2022-11-28T08:08:06.248Z,100402.25
2022-11-28T08:10:33.048Z,100417.31
2022-11-28T08:12:59.752Z,100412.06
2022-11-28T08:15:31.163Z,100395.59
2022-11-28T08:17:57.862Z,100401.81
2022-11-28T08:20:24.776Z,100394.53
2022-11-28T08:22:51.508Z,100397.59
2022-11-28T08:25:18.145Z,100417.22
2022-11-28T08:27:44.932Z,100389.31
2022-11-28T08:30:12.032Z,100404.59
2022-11-28T08:32:38.703Z,100398.50
2022-11-28T08:35:06.132Z,100392.06
2022-11-28T08:37:32.818Z,100385.09
2022-11-28T08:39:59.444Z,100392.06
2022-11-28T08:42:27.835Z,100388.91
2022-11-28T08:44:54.472Z,100383.00
2022-11-28T08:47:21.096Z,100382.31
2022-11-28T08:49:47.835Z,100387.91
2022-11-28T08:52:14.566Z,100382.28
2022-11-28T08:54:41.827Z,100376.66
2022-11-28T08:57:08.672Z,100357.91
2022-11-28T08:59:35.379Z,100373.34
2022-11-28T09:02:02.067Z,100350.88
2022-11-28T09:04:28.972Z,100357.50
2022-11-28T09:06:55.587Z,100343.75
2022-11-28T09:09:22.260Z,100352.53
2022-11-28T09:11:49.123Z,100335.34
2022-11-28T09:14:15.823Z,100333.88
2022-11-28T09:16:42.556Z,100325.78
2022-11-28T09:19:10.793Z,100328.44
2022-11-28T09:21:38.042Z,100337.22
2022-11-28T09:24:05.308Z,100338.34
2022-11-28T09:26:33.312Z,100346.22
2022-11-28T09:29:00.300Z,100328.53
2022-11-28T09:31:27.382Z,100326.75
2022-11-28T09:33:54.164Z,100339.09
2022-11-28T09:36:23.073Z,100337.13
2022-11-28T09:38:50.069Z,100330.72
2022-11-28T09:41:25.802Z,100326.25
2022-11-28T09:43:55.183Z,100326.75
2022-11-28T09:46:29.231Z,100328.88
2022-11-28T09:49:01.117Z,100326.91
2022-11-28T09:51:33.687Z,100330.56
2022-11-28T09:54:18.320Z,100315.22
2022-11-28T09:59:44.209Z,100319.75
2022-11-28T10:02:13.737Z,100312.75
2022-11-28T10:04:56.588Z,100310.81
2022-11-28T10:07:36.225Z,100301.72
2022-11-28T10:10:14.602Z,100296.13
2022-11-28T10:12:48.436Z,100298.09
2022-11-28T10:15:56.595Z,100280.63
2022-11-28T10:19:00.714Z,100269.06
2022-11-28T10:21:44.898Z,100263.28
2022-11-28T10:24:16.396Z,100257.53
2022-11-28T10:26:54.320Z,100251.25
2022-11-28T10:29:59.362Z,100246.13
2022-11-28T10:32:33.334Z,100242.47
2022-11-28T10:35:14.678Z,100230.44
2022-11-28T10:37:41.386Z,100259.19
2022-11-28T10:40:21.331Z,100242.00
2022-11-28T10:42:56.266Z,100246.94
2022-11-28T10:45:35.543Z,100232.72
2022-11-28T10:48:39.000Z,100236.88
2022-11-28T10:51:38.226Z,100240.66
2022-11-28T10:54:40.158Z,100227.78
2022-11-28T10:57:12.668Z,100222.81
2022-11-28T10:59:48.039Z,100213.91
2022-11-28T11:02:40.888Z,100220.50
2022-11-28T11:05:13.470Z,100203.66
2022-11-28T11:07:47.056Z,100208.13
2022-11-28T11:10:36.971Z,100223.81
2022-11-28T11:13:26.550Z,100226.75
2022-11-28T11:16:11.628Z,100225.63
2022-11-28T11:18:58.571Z,100228.91
2022-11-28T11:21:27.240Z,100219.03
2022-11-28T11:24:16.008Z,100215.75
2022-11-28T11:26:46.086Z,100219.06
2022-11-28T11:29:28.023Z,100210.97
2022-11-28T11:31:55.265Z,100211.94
2022-11-28T11:34:23.848Z,100199.22
2022-11-28T11:36:51.673Z,100208.00
2022-11-28T11:39:25.485Z,100210.63
2022-11-28T11:42:16.676Z,100209.63
2022-11-28T11:44:43.390Z,100185.72
2022-11-28T11:47:10.812Z,100203.88
2022-11-28T11:49:47.735Z,100207.31
2022-11-28T11:52:27.603Z,100204.34
2022-11-28T11:54:57.096Z,100202.84
2022-11-28T11:57:33.123Z,100207.81
2022-11-28T12:00:11.877Z,100199.22
2022-11-28T12:02:45.445Z,100200.84
2022-11-28T12:08:50.563Z,100194.28
2022-11-28T12:11:33.411Z,100195.75
2022-11-28T12:14:20.731Z,100177.72
2022-11-28T12:16:53.271Z,100188.78
2022-11-28T12:19:38.192Z,100183.66
2022-11-28T12:22:34.086Z,100176.22
2022-11-28T12:25:29.181Z,100183.44
2022-11-28T12:28:29.721Z,100181.09
2022-11-28T12:31:16.661Z,100182.94
2022-11-28T12:34:13.997Z,100174.69
2022-11-28T12:36:54.673Z,100190.84
2022-11-28T12:39:33.363Z,100182.09
2022-11-28T12:42:21.232Z,100176.00
2022-11-28T12:44:59.821Z,100175.50
2022-11-28T12:47:26.498Z,100184.59
2022-11-28T12:50:08.100Z,100177.78
2022-11-28T12:52:43.807Z,100173.38
2022-11-28T12:55:48.039Z,100165.63
2022-11-28T12:58:36.635Z,100174.50
2022-11-28T13:01:24.660Z,100167.78
2022-11-28T13:03:57.328Z,100168.34
2022-11-28T13:06:47.207Z,100176.03
2022-11-28T13:09:37.490Z,100172.59
2022-11-28T13:12:06.786Z,100168.00
2022-11-28T13:14:52.483Z,100171.00
2022-11-28T13:17:31.634Z,100176.16
2022-11-28T13:20:20.919Z,100189.22
2022-11-28T13:23:06.270Z,100181.94
2022-11-28T13:26:08.393Z,100181.44
2022-11-28T13:29:02.968Z,100178.47
2022-11-28T13:31:49.357Z,100166.47
2022-11-28T13:34:18.668Z,100178.81
2022-11-28T13:39:42.733Z,100170.06
2022-11-28T13:45:31.927Z,100165.25
2022-11-28T13:48:00.422Z,100169.56
2022-11-28T13:50:39.517Z,100141.13
2022-11-28T13:53:12.556Z,100171.53
2022-11-28T13:55:47.019Z,100171.88
2022-11-28T13:58:19.332Z,100172.41
2022-11-28T14:01:09.798Z,100175.28
2022-11-28T14:03:54.242Z,100158.22
2022-11-28T14:06:24.107Z,100166.47
2022-11-28T14:09:12.354Z,100180.47
2022-11-28T14:11:55.615Z,100182.72
2022-11-28T14:15:10.467Z,100176.44
2022-11-28T14:21:11.465Z,100171.66
2022-11-28T14:24:05.293Z,100183.56
2022-11-28T14:26:38.652Z,100157.47
2022-11-28T14:29:18.168Z,100173.28
2022-11-28T14:32:13.541Z,100184.28
2022-11-28T14:34:48.360Z,100153.81
2022-11-28T14:37:27.478Z,100175.41
2022-11-28T14:39:56.275Z,100182.00
2022-11-28T14:42:58.122Z,100175.13
2022-11-28T14:45:42.013Z,100179.06
2022-11-28T14:48:19.420Z,100179.66
2022-11-28T14:50:47.152Z,100181.34
2022-11-28T14:53:36.369Z,100172.84
2022-11-28T14:56:11.604Z,100172.88
2022-11-28T14:58:38.845Z,100176.59
2022-11-28T15:01:13.232Z,100169.03
2022-11-28T15:03:53.917Z,100169.34
2022-11-28T15:06:31.081Z,100167.22
2022-11-28T15:09:21.338Z,100172.50
2022-11-28T15:12:21.879Z,100164.78
2022-11-28T15:14:57.606Z,100168.25
2022-11-28T15:17:30.867Z,100166.34
2022-11-28T15:20:02.965Z,100154.25
2022-11-28T15:22:41.391Z,100104.56
2022-11-28T15:25:24.975Z,100158.28
2022-11-28T15:27:52.299Z,100167.44
2022-11-28T15:30:21.729Z,100156.38
2022-11-28T15:32:48.827Z,100154.09
2022-11-28T15:35:18.842Z,100168.59
2022-11-28T15:37:54.417Z,100164.63
2022-11-28T15:40:39.435Z,100159.88
2022-11-28T15:43:11.287Z,100148.81
2022-11-28T15:45:42.401Z,100155.94
2022-11-28T15:48:27.208Z,100150.00
2022-11-28T15:50:54.288Z,100154.50
2022-11-28T15:53:21.530Z,100145.81
2022-11-28T15:56:06.363Z,100141.50
2022-11-28T15:58:33.055Z,100135.44
2022-11-28T16:01:29.380Z,100138.19
2022-11-28T16:04:06.687Z,100145.16
2022-11-28T16:06:36.561Z,100148.47
2022-11-28T16:09:07.412Z,100151.44
2022-11-28T16:11:35.797Z,100155.41
2022-11-28T16:14:09.262Z,100148.78
2022-11-28T16:16:38.299Z,100130.38
2022-11-28T16:19:08.996Z,100143.53
2022-11-28T16:21:46.737Z,100140.94
2022-11-28T16:24:17.956Z,100144.88
2022-11-28T16:27:00.345Z,100148.19
2022-11-28T16:29:34.650Z,100144.88
2022-11-28T16:32:19.619Z,100151.44
2022-11-28T16:34:51.984Z,100162.91
2022-11-28T16:37:25.650Z,100160.94
2022-11-28T16:40:14.522Z,100152.41
2022-11-28T16:42:41.747Z,100149.50
2022-11-28T16:45:15.856Z,100143.03
2022-11-28T16:47:44.027Z,100145.16
2022-11-28T16:50:18.744Z,100147.13
2022-11-28T16:52:49.394Z,100139.22
2022-11-28T16:55:39.894Z,100151.94
2022-11-28T16:58:13.116Z,100135.63
2022-11-28T17:00:44.235Z,100135.94
2022-11-28T17:03:45.191Z,100148.06
2022-11-28T17:06:17.399Z,100133.16
2022-11-28T17:08:44.303Z,100130.03
2022-11-28T17:11:12.513Z,100145.59
2022-11-28T17:13:39.223Z,100153.28
2022-11-28T17:16:06.424Z,100156.53
2022-11-28T17:18:33.165Z,100148.78
2022-11-28T17:21:00.124Z,100155.72
2022-11-28T17:23:26.827Z,100087.16
2022-11-28T17:25:53.677Z,100152.63
2022-11-28T17:28:23.171Z,100080.63
2022-11-28T17:30:51.925Z,100146.47
2022-11-28T17:33:18.635Z,100144.72
2022-11-28T17:35:47.075Z,100110.13
2022-11-28T17:38:14.004Z,100147.44
2022-11-28T17:40:42.897Z,100140.53
2022-11-28T17:43:18.019Z,100149.75
2022-11-28T17:45:45.417Z,100148.97
2022-11-28T17:48:19.054Z,100124.75
2022-11-28T17:50:49.279Z,100145.66
2022-11-28T17:53:19.889Z,100141.56
2022-11-28T17:55:48.692Z,100135.44
2022-11-28T17:58:22.209Z,100152.03
2022-11-28T18:00:51.764Z,100132.94
2022-11-28T18:03:22.033Z,100135.56
2022-11-28T18:05:50.555Z,100133.25
2022-11-28T18:08:22.290Z,100141.13
2022-11-28T18:10:49.938Z,100131.22
2022-11-28T18:13:17.732Z,100123.03
2022-11-28T18:15:47.141Z,100117.03
2022-11-28T18:18:14.361Z,100125.31
2022-11-28T18:20:42.466Z,100126.09
2022-11-28T18:23:11.544Z,100130.44
2022-11-28T18:25:42.783Z,100129.75
2022-11-28T18:28:14.460Z,100134.88
2022-11-28T18:30:46.188Z,100134.53
2022-11-28T18:33:14.174Z,100118.38
2022-11-28T18:35:41.531Z,100129.44
2022-11-28T18:38:08.851Z,100134.53
2022-11-28T18:40:37.530Z,100134.88
2022-11-28T18:43:05.129Z,100142.28
2022-11-28T18:45:33.141Z,100128.91
2022-11-28T18:48:00.509Z,100144.47
2022-11-28T18:50:27.635Z,100144.97
2022-11-28T18:52:54.930Z,100135.13
2022-11-28T18:55:21.607Z,100147.78
2022-11-28T18:57:48.275Z,100150.09
2022-11-28T19:00:15.607Z,100139.72
2022-11-28T19:02:42.304Z,100137.00
2022-11-28T19:05:09.168Z,100144.81
2022-11-28T19:07:35.929Z,100148.44
2022-11-28T19:10:02.986Z,100138.72
2022-11-28T19:12:29.639Z,100139.56
2022-11-28T19:15:01.819Z,100138.44
2022-11-28T19:17:29.038Z,100128.44
2022-11-28T19:19:55.768Z,100136.16
2022-11-28T19:22:22.954Z,100130.09
2022-11-28T19:24:49.653Z,100129.41
2022-11-28T19:27:16.355Z,100126.78
2022-11-28T19:29:43.354Z,100127.25
2022-11-28T19:32:10.381Z,100129.75
2022-11-28T19:34:37.094Z,100128.75
2022-11-28T19:37:03.786Z,100129.41
2022-11-28T19:39:30.437Z,100114.28
2022-11-28T19:41:57.224Z,100120.84
2022-11-28T19:44:24.836Z,100111.16
2022-11-28T19:46:52.927Z,100100.41
2022-11-28T19:49:23.969Z,100113.63
2022-11-28T19:51:51.512Z,100118.44
2022-11-28T19:54:19.764Z,100105.91
2022-11-28T19:56:47.799Z,100103.47
2022-11-28T19:59:14.615Z,100111.50
2022-11-28T20:01:41.425Z,100117.19
2022-11-28T20:04:08.654Z,100110.59
2022-11-28T20:06:35.507Z,100119.69
2022-11-28T20:09:08.718Z,100118.84
2022-11-28T20:11:36.398Z,100122.28
2022-11-28T20:14:12.713Z,100117.34
2022-11-28T20:16:39.810Z,100111.75
2022-11-28T20:19:07.019Z,100103.22
2022-11-28T20:21:34.408Z,100088.56
2022-11-28T20:24:05.296Z,100101.28
2022-11-28T20:26:36.919Z,100104.94
2022-11-28T20:29:04.028Z,100112.34
2022-11-28T20:31:34.398Z,100113.81
2022-11-28T20:34:01.827Z,100102.63
2022-11-28T20:36:30.213Z,100093.88
2022-11-28T20:38:57.351Z,100106.59
2022-11-28T20:41:25.746Z,100098.19
2022-11-28T20:43:52.838Z,100100.31
2022-11-28T20:46:27.326Z,100101.66
2022-11-28T20:48:54.591Z,100105.94
2022-11-28T20:51:25.000Z,100104.09
2022-11-28T20:53:52.524Z,100096.00
2022-11-28T20:56:21.880Z,100099.47
2022-11-28T20:58:49.242Z,100092.22
2022-11-28T21:01:22.255Z,100094.50
2022-11-28T21:03:49.457Z,100091.75
2022-11-28T21:06:16.830Z,100083.16
2022-11-28T21:08:43.563Z,100076.09
2022-11-28T21:11:30.895Z,100098.03
2022-11-28T21:14:03.559Z,100088.47
2022-11-28T21:16:32.180Z,100082.69
2022-11-28T21:19:04.983Z,100094.41
2022-11-28T21:21:33.642Z,100089.63
2022-11-28T21:24:03.155Z,100082.06
2022-11-28T21:26:33.059Z,100074.81
2022-11-28T21:29:07.443Z,100083.56
2022-11-28T21:31:37.241Z,100082.72
2022-11-28T21:34:04.079Z,100076.78
2022-11-28T21:36:31.958Z,100059.47
2022-11-28T21:39:02.002Z,100065.25
2022-11-28T21:41:31.875Z,100061.16
2022-11-28T21:43:59.985Z,100058.81
2022-11-28T21:46:27.512Z,100062.44
2022-11-28T21:48:54.277Z,100062.75
2022-11-28T21:51:24.461Z,100036.88
2022-11-28T21:53:52.015Z,100056.84
2022-11-28T21:56:18.974Z,100061.28
2022-11-28T21:58:45.669Z,100072.81
2022-11-28T22:01:14.031Z,100071.19
2022-11-28T22:03:41.878Z,100072.03
2022-11-28T22:06:12.773Z,100067.72
2022-11-28T22:08:39.499Z,100067.72
2022-11-28T22:11:11.192Z,100071.19
2022-11-28T22:13:39.169Z,100060.34
2022-11-28T22:16:16.064Z,100072.00
2022-11-28T22:18:43.050Z,100054.22
2022-11-28T22:21:49.399Z,100054.84
2022-11-28T22:23:57.239Z,100059.16
2022-11-28T22:26:24.031Z,100054.22
2022-11-28T22:28:53.834Z,100063.13
2022-11-28T22:31:21.340Z,100051.91
2022-11-28T22:33:49.271Z,100050.75
2022-11-28T22:36:18.680Z,100042.00
2022-11-28T22:38:46.367Z,100024.19
2022-11-28T22:41:16.133Z,100032.97
2022-11-28T22:43:42.768Z,100032.16
2022-11-28T22:46:10.721Z,100026.38
2022-11-28T22:48:38.563Z,100028.34
2022-11-28T22:51:10.105Z,100023.38
2022-11-28T22:53:37.066Z,100025.50
2022-11-28T22:56:06.796Z,100016.47
2022-11-28T22:58:42.870Z,100028.81
2022-11-28T23:01:12.789Z,100033.06
2022-11-28T23:03:39.451Z,100029.13
2022-11-28T23:06:07.263Z,100033.75
2022-11-28T23:08:34.463Z,100031.09
2022-11-28T23:11:10.151Z,100020.53
2022-11-28T23:13:38.193Z,100015.41
2022-11-28T23:16:26.457Z,100017.50
2022-11-28T23:18:57.853Z,100016.03
2022-11-28T23:21:26.205Z,100013.22
2022-11-28T23:23:52.975Z,100018.50
2022-11-28T23:26:23.014Z,100015.03
2022-11-28T23:28:50.762Z,100007.59
2022-11-28T23:31:18.977Z,100010.91
2022-11-28T23:33:45.987Z,100000.16
2022-11-28T23:36:30.659Z,99997.03
2022-11-28T23:39:00.069Z,100004.16
2022-11-28T23:41:27.946Z,100005.59
2022-11-28T23:43:55.085Z,100007.28
2022-11-28T23:46:22.874Z,100019.59
2022-11-28T23:48:50.207Z,100024.59
2022-11-28T23:51:18.936Z,100022.47
2022-11-28T23:53:46.235Z,100019.16
2022-11-28T23:56:21.851Z,100019.81
2022-11-28T23:58:49.025Z,100008.31
